LFBM

Mont-de-Marsan (BA 118) Air Base

Airport
ICAO code
LFBM
Summary
ICAO Region
EUR
ICAO Territory
Location

, Aquitaine

Serving
Mont-de-marsan
Elevation
203 ft
Coordinates
43° 54' 42" N , 0° 30' 27" W
Metar
Observation
LFBM 030200Z AUTO 04001KT CAVOK 03/03 Q1011 TEMPO 3000 BR BKN005
Station
Mont-De-Marsan
Date/Time
2022-12-03 02:00:00
Wind direction
40°
Wind speed
01 kts
Lowest cloud amount
broken clouds
Temperature
3°C
Dew point
3°C
Humidity
100%
QNH
1011 hPa
Weather condition
n/a

Runways

Designator Length Width Surface Rops
9/27 3603 45 PEM No/No

Airport map

Aerial View

SKYbrary Partners:

Safety knowledge contributed by: